EDLW/DTM METAR and TAF weather

Enter ICAO airport designator
Station Type Date Time Source
EDLW METAR 2020/10/29 17:20 UTC NOAA

EDLW 291720Z 21010KT 9999 -RA BKN044 10/09 Q1017


Station Type Date Time Source
EDLW Decoded METAR 2020/10/29 17:20 UTC NOAA

Dortmund / Wickede, Germany (EDLW) 51-31N 007-37E
Oct 29, 2020 - 01:20 PM EDT / 2020.10.29 1720 UTC
Wind: from the SSW (210 degrees) at 12 MPH (10 KT):0
Visibility: greater than 7 mile(s):0
Sky conditions: mostly cloudy
Weather: light rain
Temperature: 50 F (10 C)
Dew Point: 48 F (9 C)
Relative Humidity: 93%
Pressure (altimeter): 30.03 in. Hg (1017 hPa)
ob: EDLW 291720Z 21010KT 9999 -RA BKN044 10/09 Q1017
cycle: 17

Station Type Date Time Source
EDLW TAF 2020/10/29 18:30 UTC NOAA

TAF EDLW 291700Z 2918/3018 22010KT 8000 BKN030
TEMPO 2918/2922 RA
BECMG 2919/2922 22015KT BKN012
TEMPO 2922/3018 BKN007
TEMPO 2923/3012 24015G25KT PROB30
TEMPO 3012/3018 4000 -DZRA

Example: see airport list